createdAt,value
2018-05-25T00:02:03.424Z,92.70
2018-05-25T00:04:29.830Z,92.70
2018-05-25T00:06:56.247Z,92.70
2018-05-25T00:09:24.144Z,92.90
2018-05-25T00:11:50.641Z,92.80
2018-05-25T00:14:17.091Z,92.90
2018-05-25T00:16:43.471Z,92.90
2018-05-25T00:19:09.884Z,92.80
2018-05-25T00:21:36.310Z,93.00
2018-05-25T00:24:03.424Z,93.10
2018-05-25T00:26:29.826Z,93.10
2018-05-25T00:28:56.213Z,93.00
2018-05-25T00:31:22.626Z,92.90
2018-05-25T00:33:49.022Z,92.90
2018-05-25T00:36:15.390Z,92.80
2018-05-25T00:38:54.542Z,92.80
2018-05-25T00:41:21.664Z,92.90
2018-05-25T00:43:48.067Z,92.90
2018-05-25T00:46:14.495Z,92.90
2018-05-25T00:48:40.896Z,93.00
2018-05-25T00:51:08.033Z,93.10
2018-05-25T00:53:35.164Z,93.10
2018-05-25T00:56:01.574Z,93.10
2018-05-25T00:58:27.972Z,93.20
2018-05-25T01:00:54.370Z,93.30
2018-05-25T01:03:20.781Z,93.20
2018-05-25T01:05:47.165Z,93.20
2018-05-25T01:08:13.579Z,93.30
2018-05-25T01:10:40.721Z,93.30
2018-05-25T01:13:07.234Z,93.20
2018-05-25T01:15:33.648Z,93.10
2018-05-25T01:18:00.814Z,93.40
2018-05-25T01:20:27.255Z,93.40
2018-05-25T01:22:53.654Z,93.30
2018-05-25T01:25:20.056Z,93.40
2018-05-25T01:27:47.191Z,93.40
2018-05-25T01:30:13.571Z,93.40
2018-05-25T01:32:39.966Z,93.30
2018-05-25T01:35:07.141Z,93.40
2018-05-25T01:37:33.559Z,93.30
2018-05-25T01:40:00.769Z,93.10
2018-05-25T01:42:27.161Z,93.10
2018-05-25T01:44:53.555Z,93.10
2018-05-25T01:47:19.980Z,93.20
2018-05-25T01:49:46.388Z,93.30
2018-05-25T01:52:12.823Z,93.30
2018-05-25T01:54:39.223Z,93.30
2018-05-25T01:57:05.623Z,93.20
2018-05-25T01:59:32.016Z,93.20
2018-05-25T02:01:58.421Z,93.30
2018-05-25T02:04:24.822Z,93.30
2018-05-25T02:06:51.994Z,93.20
2018-05-25T02:09:19.119Z,93.20
2018-05-25T02:11:45.513Z,93.20
2018-05-25T02:14:11.965Z,93.30
2018-05-25T02:16:38.355Z,93.30
2018-05-25T02:19:04.781Z,93.30
2018-05-25T02:21:31.174Z,93.20
2018-05-25T02:23:57.570Z,93.30
2018-05-25T02:26:23.977Z,93.30
2018-05-25T02:28:50.385Z,93.40
2018-05-25T02:31:16.768Z,93.30
2018-05-25T02:33:43.172Z,93.60
2018-05-25T02:36:09.573Z,93.40
2018-05-25T02:38:36.794Z,93.50
2018-05-25T02:41:03.171Z,93.50
2018-05-25T02:43:30.306Z,93.60
2018-05-25T02:45:56.718Z,93.50
2018-05-25T02:48:23.136Z,93.60
2018-05-25T02:50:49.542Z,93.50
2018-05-25T02:53:15.998Z,93.50
2018-05-25T02:55:42.384Z,93.50
2018-05-25T02:58:09.500Z,93.60
2018-05-25T03:00:36.675Z,93.50
2018-05-25T03:03:03.067Z,93.50
2018-05-25T03:05:29.434Z,93.60
2018-05-25T03:07:55.831Z,93.30
2018-05-25T03:10:22.240Z,93.50
2018-05-25T03:12:48.651Z,93.50
2018-05-25T03:15:15.060Z,93.50
2018-05-25T03:17:41.473Z,93.60
2018-05-25T03:20:07.888Z,93.60
2018-05-25T03:22:34.287Z,93.60
2018-05-25T03:25:01.427Z,93.70
2018-05-25T03:27:28.559Z,93.80
2018-05-25T03:29:54.957Z,93.80
2018-05-25T03:32:21.357Z,93.60
2018-05-25T03:34:47.765Z,93.70
2018-05-25T03:37:14.227Z,93.90
2018-05-25T03:39:40.630Z,93.90
2018-05-25T03:42:07.027Z,94.00
2018-05-25T03:44:33.430Z,94.00
2018-05-25T03:46:59.833Z,93.90
2018-05-25T03:49:26.225Z,93.80
2018-05-25T03:51:52.642Z,93.90
2018-05-25T03:54:19.040Z,94.00
2018-05-25T03:56:46.158Z,94.00
2018-05-25T03:59:24.946Z,94.00
2018-05-25T04:01:57.405Z,94.10
2018-05-25T04:04:23.792Z,94.10
2018-05-25T04:06:50.207Z,94.30
2018-05-25T04:09:16.596Z,94.30
2018-05-25T04:11:43.013Z,94.20
2018-05-25T04:14:10.149Z,94.00
2018-05-25T04:16:37.298Z,94.20
2018-05-25T04:19:03.710Z,94.10
2018-05-25T04:21:30.122Z,94.30
2018-05-25T04:23:56.507Z,94.50
2018-05-25T04:26:23.622Z,94.60
2018-05-25T04:28:50.020Z,94.60
2018-05-25T04:31:16.434Z,94.70
2018-05-25T04:33:43.560Z,94.50
2018-05-25T04:36:10.706Z,94.50
2018-05-25T04:38:37.175Z,94.50
2018-05-25T04:41:03.599Z,94.60
2018-05-25T04:43:30.726Z,94.70
2018-05-25T04:45:57.111Z,94.60
2018-05-25T04:48:23.541Z,94.60
2018-05-25T04:50:49.989Z,94.60
2018-05-25T04:53:16.392Z,94.60
2018-05-25T04:55:42.788Z,94.50
2018-05-25T04:58:09.188Z,94.90
2018-05-25T05:00:35.593Z,94.90
2018-05-25T05:03:01.998Z,94.80
2018-05-25T05:05:29.126Z,94.90
2018-05-25T05:07:55.526Z,94.90
2018-05-25T05:10:21.912Z,94.90
2018-05-25T05:12:49.067Z,95.00
2018-05-25T05:15:16.285Z,95.00
2018-05-25T05:17:42.668Z,94.90
2018-05-25T05:20:09.091Z,94.90
2018-05-25T05:22:36.216Z,95.00
2018-05-25T05:25:02.639Z,95.00
2018-05-25T05:27:29.043Z,94.90
2018-05-25T05:29:55.434Z,94.90
2018-05-25T05:32:22.571Z,95.00
2018-05-25T05:34:49.000Z,95.00
2018-05-25T05:37:16.192Z,95.10
2018-05-25T05:39:42.577Z,95.10
2018-05-25T05:42:08.973Z,95.30
2018-05-25T05:44:35.447Z,95.20
2018-05-25T05:47:02.616Z,95.30
2018-05-25T05:49:29.787Z,95.30
2018-05-25T05:51:56.186Z,95.30
2018-05-25T05:54:22.553Z,95.30
2018-05-25T05:56:48.943Z,95.40
2018-05-25T05:59:15.359Z,95.30
2018-05-25T06:01:41.753Z,95.20
2018-05-25T06:04:08.156Z,95.20
2018-05-25T06:06:35.325Z,95.00
2018-05-25T06:09:01.771Z,95.00
2018-05-25T06:11:28.173Z,94.90
2018-05-25T06:13:55.322Z,94.80
2018-05-25T06:16:22.550Z,94.90
2018-05-25T06:18:48.976Z,94.90
2018-05-25T06:21:15.395Z,94.90
2018-05-25T06:23:41.807Z,94.90
2018-05-25T06:26:08.284Z,95.20
2018-05-25T06:28:34.675Z,95.00
2018-05-25T06:31:01.100Z,94.80
2018-05-25T06:33:27.530Z,95.00
2018-05-25T06:35:53.938Z,94.90
2018-05-25T06:38:21.097Z,95.00
2018-05-25T06:40:47.557Z,95.00
2018-05-25T06:43:13.977Z,94.90
2018-05-25T06:45:40.379Z,94.90
2018-05-25T06:48:07.527Z,95.00
2018-05-25T06:50:33.919Z,95.00
2018-05-25T06:53:00.391Z,95.00
2018-05-25T06:55:26.829Z,95.00
2018-05-25T06:57:54.007Z,95.20
2018-05-25T07:00:20.419Z,95.20
2018-05-25T07:02:47.559Z,95.20
2018-05-25T07:05:14.776Z,95.30
2018-05-25T07:07:42.004Z,95.30
2018-05-25T07:10:08.437Z,95.30
2018-05-25T07:12:34.852Z,95.30
2018-05-25T07:15:01.271Z,95.10
2018-05-25T07:17:28.406Z,95.40
2018-05-25T07:19:54.786Z,95.30
2018-05-25T07:22:21.175Z,95.30
2018-05-25T07:24:47.575Z,95.40
2018-05-25T07:27:15.455Z,95.40
2018-05-25T07:29:41.879Z,95.30
2018-05-25T07:32:08.270Z,95.30
2018-05-25T07:34:34.724Z,95.30
2018-05-25T07:37:01.159Z,95.40
2018-05-25T07:39:27.575Z,95.40
2018-05-25T07:41:53.983Z,95.40
2018-05-25T07:44:20.386Z,95.30
2018-05-25T07:46:46.794Z,95.10
2018-05-25T07:49:13.202Z,94.90
2018-05-25T07:51:39.602Z,94.90
2018-05-25T07:54:06.101Z,95.10
2018-05-25T07:56:32.505Z,95.10
2018-05-25T07:58:58.890Z,95.10
2018-05-25T08:01:25.287Z,95.10
2018-05-25T08:03:51.678Z,95.20
2018-05-25T08:06:18.958Z,95.30
2018-05-25T08:08:45.395Z,95.30
2018-05-25T08:11:11.787Z,95.30
2018-05-25T08:13:39.027Z,95.30
2018-05-25T08:16:05.416Z,95.30
2018-05-25T08:18:31.821Z,95.10
2018-05-25T08:20:58.417Z,95.30
2018-05-25T08:23:25.781Z,95.10
2018-05-25T08:25:52.183Z,95.30
2018-05-25T08:28:18.813Z,95.40
2018-05-25T08:30:45.222Z,95.30
2018-05-25T08:33:11.618Z,95.40
2018-05-25T08:35:38.067Z,95.50
2018-05-25T08:38:04.524Z,95.40
2018-05-25T08:40:30.922Z,95.40
2018-05-25T08:42:58.076Z,95.60
2018-05-25T08:45:24.475Z,95.80
2018-05-25T08:47:50.925Z,95.60
2018-05-25T08:50:17.322Z,95.60
2018-05-25T08:52:43.747Z,95.40
2018-05-25T08:55:10.240Z,95.50
2018-05-25T08:57:36.638Z,95.50
2018-05-25T09:00:03.103Z,95.60
2018-05-25T09:02:29.514Z,95.60
2018-05-25T09:04:55.945Z,95.70
2018-05-25T09:07:22.336Z,95.60
2018-05-25T09:09:48.754Z,95.60
2018-05-25T09:12:15.884Z,95.70
2018-05-25T09:14:42.294Z,95.70
2018-05-25T09:17:08.713Z,95.50
2018-05-25T09:19:35.097Z,95.50
2018-05-25T09:22:01.483Z,95.70
2018-05-25T09:24:27.876Z,95.50
2018-05-25T09:26:55.012Z,95.50
2018-05-25T09:29:22.148Z,95.50
2018-05-25T09:31:48.550Z,95.50
2018-05-25T09:34:14.943Z,95.70
2018-05-25T09:36:41.335Z,95.50
2018-05-25T09:39:07.772Z,95.60
2018-05-25T09:41:34.227Z,95.70
2018-05-25T09:44:01.374Z,95.80
2018-05-25T09:46:28.524Z,95.80
2018-05-25T09:48:55.687Z,95.80
2018-05-25T09:51:22.082Z,95.80
2018-05-25T09:53:48.488Z,95.70
2018-05-25T09:56:14.890Z,95.90
2018-05-25T09:58:41.345Z,96.00
2018-05-25T10:01:07.768Z,95.90
2018-05-25T10:03:34.196Z,96.00
2018-05-25T10:06:00.606Z,95.60
2018-05-25T10:08:27.791Z,95.60
2018-05-25T10:10:55.134Z,95.60
2018-05-25T10:13:21.554Z,96.20
2018-05-25T10:15:48.709Z,95.90
2018-05-25T10:18:15.102Z,95.90
2018-05-25T10:20:41.497Z,95.90
2018-05-25T10:23:07.938Z,95.90
2018-05-25T10:25:34.342Z,95.80
2018-05-25T10:28:00.726Z,95.80
2018-05-25T10:30:27.129Z,95.90
2018-05-25T10:32:53.547Z,95.60
2018-05-25T10:35:19.983Z,95.80
2018-05-25T10:37:46.397Z,95.90
2018-05-25T10:40:12.839Z,95.80
2018-05-25T10:42:39.230Z,95.70
2018-05-25T10:45:07.134Z,95.90
2018-05-25T10:47:33.528Z,95.90
2018-05-25T10:49:59.910Z,95.70
2018-05-25T10:52:26.321Z,95.70
2018-05-25T10:54:53.504Z,95.60
2018-05-25T10:57:20.480Z,95.60
2018-05-25T10:59:46.876Z,95.80
2018-05-25T11:02:13.277Z,95.70
2018-05-25T11:04:40.408Z,95.40
2018-05-25T11:07:08.295Z,95.10
2018-05-25T11:09:35.484Z,95.60
2018-05-25T11:12:01.886Z,95.60
2018-05-25T11:14:29.055Z,95.10
2018-05-25T11:16:55.490Z,95.00
2018-05-25T11:19:21.968Z,95.40
2018-05-25T11:21:48.396Z,95.10
2018-05-25T11:24:14.792Z,94.70
2018-05-25T11:26:41.202Z,94.70
2018-05-25T11:29:08.335Z,94.60
2018-05-25T11:31:34.764Z,94.60
2018-05-25T11:34:01.174Z,95.10
2018-05-25T11:36:27.589Z,94.70
2018-05-25T11:38:53.974Z,95.00
2018-05-25T11:41:21.119Z,95.20
2018-05-25T11:43:48.274Z,95.20
2018-05-25T11:46:15.425Z,95.50
2018-05-25T11:48:42.696Z,94.60
2018-05-25T11:51:09.143Z,94.60
2018-05-25T11:53:36.251Z,94.10
2018-05-25T11:56:03.414Z,93.90
2018-05-25T11:58:30.549Z,93.70
2018-05-25T12:00:56.987Z,93.70
2018-05-25T12:03:24.142Z,93.60
2018-05-25T12:05:51.356Z,93.10
2018-05-25T12:08:17.753Z,93.00
2018-05-25T12:10:44.225Z,93.70
2018-05-25T12:13:11.722Z,93.50
2018-05-25T12:15:38.884Z,93.70
2018-05-25T12:18:05.297Z,93.70
2018-05-25T12:20:32.458Z,93.50
2018-05-25T12:22:59.607Z,93.00
2018-05-25T12:25:26.776Z,93.20
2018-05-25T12:27:54.222Z,93.30
2018-05-25T12:30:20.665Z,93.20
2018-05-25T12:32:47.065Z,93.00
2018-05-25T12:35:14.429Z,92.90
2018-05-25T12:37:41.635Z,92.90
2018-05-25T12:40:08.031Z,93.00
2018-05-25T12:42:34.438Z,92.10
2018-05-25T12:45:10.765Z,91.50
2018-05-25T12:47:37.195Z,91.60
2018-05-25T12:50:03.637Z,91.80
2018-05-25T12:52:30.612Z,91.30
2018-05-25T12:54:57.780Z,92.10
2018-05-25T12:57:25.050Z,91.30
2018-05-25T12:59:52.386Z,91.30
2018-05-25T13:02:19.597Z,91.10
2018-05-25T13:04:45.990Z,91.10
2018-05-25T13:07:12.410Z,91.40
2018-05-25T13:09:39.579Z,91.50
2018-05-25T13:12:06.081Z,91.40
2018-05-25T13:14:33.252Z,91.30
2018-05-25T13:17:00.413Z,91.20
2018-05-25T13:19:26.824Z,91.20
2018-05-25T13:21:53.992Z,91.30
2018-05-25T13:24:20.454Z,91.30
2018-05-25T13:26:46.945Z,90.20
2018-05-25T13:29:13.354Z,90.50
2018-05-25T13:31:39.762Z,90.50
2018-05-25T13:34:06.706Z,91.10
2018-05-25T13:36:33.156Z,91.40
2018-05-25T13:38:59.568Z,91.10
2018-05-25T13:41:25.999Z,91.10
2018-05-25T13:43:52.411Z,90.50
2018-05-25T13:46:18.854Z,90.10
2018-05-25T13:48:46.012Z,89.20
2018-05-25T13:51:12.433Z,89.10
2018-05-25T13:53:38.824Z,90.00
2018-05-25T13:56:05.999Z,86.60
2018-05-25T13:58:32.670Z,86.60
2018-05-25T14:00:59.089Z,88.20
2018-05-25T14:03:25.508Z,86.50
2018-05-25T14:05:51.928Z,85.60
2018-05-25T14:08:20.047Z,84.40
2018-05-25T14:10:46.447Z,84.40
2018-05-25T14:13:12.851Z,83.20
2018-05-25T14:15:39.259Z,84.60
2018-05-25T14:18:05.697Z,83.90
2018-05-25T14:20:32.116Z,83.60
2018-05-25T14:22:58.537Z,84.80
2018-05-25T14:25:24.988Z,84.40
2018-05-25T14:27:51.377Z,84.80
2018-05-25T14:30:17.762Z,85.80
2018-05-25T14:32:44.174Z,85.60
2018-05-25T14:35:10.579Z,84.70
2018-05-25T14:37:43.846Z,86.40
2018-05-25T14:40:10.997Z,84.80
2018-05-25T14:42:38.293Z,84.60
2018-05-25T14:45:04.736Z,84.60
2018-05-25T14:47:31.151Z,83.30
2018-05-25T14:49:57.541Z,84.50
2018-05-25T14:52:23.934Z,84.80
2018-05-25T14:54:50.340Z,82.80
2018-05-25T14:57:16.748Z,85.50
2018-05-25T14:59:43.882Z,84.10
2018-05-25T15:02:11.759Z,84.60
2018-05-25T15:04:38.933Z,86.10
2018-05-25T15:07:05.314Z,86.00
2018-05-25T15:09:31.720Z,85.30
2018-05-25T15:11:58.118Z,86.30
2018-05-25T15:14:25.287Z,86.50
2018-05-25T15:16:52.394Z,89.20
2018-05-25T15:19:18.779Z,89.20
2018-05-25T15:21:45.336Z,90.10
2018-05-25T15:24:11.706Z,90.20
2018-05-25T15:26:38.846Z,90.00
2018-05-25T15:29:05.257Z,90.00
2018-05-25T15:31:31.658Z,90.20
2018-05-25T15:33:58.036Z,90.30
2018-05-25T15:36:24.451Z,90.80
2018-05-25T15:38:50.839Z,90.60
2018-05-25T15:41:17.974Z,91.00
2018-05-25T15:43:45.114Z,91.10
2018-05-25T15:46:11.515Z,91.10
2018-05-25T15:48:38.028Z,91.20
2018-05-25T15:51:04.435Z,91.20
2018-05-25T15:53:31.570Z,91.30
2018-05-25T15:55:59.450Z,91.50
2018-05-25T15:58:26.623Z,91.60
2018-05-25T16:00:53.034Z,91.60
2018-05-25T16:03:20.202Z,92.00
2018-05-25T16:05:46.675Z,92.00
2018-05-25T16:08:13.070Z,91.80
2018-05-25T16:10:39.498Z,91.80
2018-05-25T16:13:05.907Z,91.70
2018-05-25T16:15:33.043Z,92.00
2018-05-25T16:17:59.449Z,91.90
2018-05-25T16:20:25.880Z,92.20
2018-05-25T16:22:52.274Z,92.20
2018-05-25T16:25:19.433Z,92.10
2018-05-25T16:27:45.905Z,92.00
2018-05-25T16:30:12.295Z,91.80
2018-05-25T16:32:38.681Z,92.20
2018-05-25T16:35:05.097Z,92.00
2018-05-25T16:37:31.499Z,91.80
2018-05-25T16:39:57.885Z,92.00
2018-05-25T16:42:24.271Z,92.00
2018-05-25T16:44:50.651Z,92.00
2018-05-25T16:47:17.120Z,92.00
2018-05-25T16:49:44.260Z,92.10
2018-05-25T16:52:11.412Z,92.00
2018-05-25T16:54:38.564Z,92.10
2018-05-25T16:57:05.695Z,92.20
2018-05-25T16:59:33.026Z,92.30
2018-05-25T17:01:59.427Z,92.10
2018-05-25T17:04:25.840Z,92.20
2018-05-25T17:06:52.959Z,92.40
2018-05-25T17:09:19.350Z,92.30
2018-05-25T17:11:45.726Z,92.20
2018-05-25T17:14:12.126Z,92.10
2018-05-25T17:16:38.513Z,92.10
2018-05-25T17:19:05.761Z,92.10
2018-05-25T17:21:32.931Z,92.00
2018-05-25T17:23:59.327Z,92.00
2018-05-25T17:26:25.707Z,91.90
2018-05-25T17:28:52.141Z,92.00
2018-05-25T17:31:18.571Z,92.00
2018-05-25T17:33:45.023Z,92.10
2018-05-25T17:36:11.478Z,92.10
2018-05-25T17:38:37.858Z,92.10
2018-05-25T17:41:04.266Z,92.30
2018-05-25T17:43:31.444Z,92.20
2018-05-25T17:45:57.906Z,92.20
2018-05-25T17:48:24.319Z,92.20
2018-05-25T17:50:50.721Z,92.10
2018-05-25T17:53:17.869Z,92.00
2018-05-25T17:55:45.040Z,92.00
2018-05-25T17:58:12.175Z,91.90
2018-05-25T18:00:39.343Z,92.00
2018-05-25T18:03:05.867Z,91.90
2018-05-25T18:05:32.271Z,91.80
2018-05-25T18:07:58.647Z,91.80
2018-05-25T18:10:25.310Z,91.70
2018-05-25T18:12:52.465Z,91.80
2018-05-25T18:15:18.843Z,91.80
2018-05-25T18:17:45.995Z,91.90
2018-05-25T18:20:12.414Z,91.90
2018-05-25T18:22:38.864Z,91.80
2018-05-25T18:25:06.029Z,92.00
2018-05-25T18:27:32.650Z,92.00
2018-05-25T18:29:59.801Z,92.20
2018-05-25T18:32:27.020Z,92.30
2018-05-25T18:34:54.946Z,92.30
2018-05-25T18:37:21.365Z,92.30
2018-05-25T18:39:48.508Z,92.10
2018-05-25T18:42:15.714Z,92.30
2018-05-25T18:44:42.120Z,92.30
2018-05-25T18:47:08.573Z,92.30
2018-05-25T18:49:35.010Z,92.30
2018-05-25T18:52:01.454Z,92.40
2018-05-25T18:54:32.031Z,92.40
2018-05-25T18:56:58.429Z,92.50
2018-05-25T18:59:24.874Z,92.50
2018-05-25T19:01:51.273Z,92.60
2018-05-25T19:04:17.668Z,92.90
2018-05-25T19:06:44.080Z,92.50
2018-05-25T19:09:11.241Z,92.40
2018-05-25T19:11:38.442Z,92.60
2018-05-25T19:14:04.890Z,92.60
2018-05-25T19:16:31.276Z,92.60
2018-05-25T19:18:57.677Z,92.60
2018-05-25T19:21:24.067Z,92.60
2018-05-25T19:23:50.458Z,92.90
2018-05-25T19:26:16.863Z,92.90
2018-05-25T19:28:44.730Z,92.90
2018-05-25T19:31:11.864Z,92.90
2018-05-25T19:33:38.318Z,92.90
2018-05-25T19:36:05.623Z,93.00
2018-05-25T19:38:32.055Z,92.90
2018-05-25T19:40:58.467Z,92.90
2018-05-25T19:43:24.904Z,92.90
2018-05-25T19:45:52.189Z,92.90
2018-05-25T19:48:19.419Z,93.00
2018-05-25T19:50:46.566Z,93.00
2018-05-25T19:53:12.969Z,92.90
2018-05-25T19:55:40.109Z,92.90
2018-05-25T19:58:07.466Z,92.90
2018-05-25T20:00:34.604Z,93.00
2018-05-25T20:03:01.021Z,93.00
2018-05-25T20:05:27.470Z,93.10
2018-05-25T20:07:54.770Z,93.20
2018-05-25T20:10:21.220Z,93.10
2018-05-25T20:12:47.611Z,93.10
2018-05-25T20:15:14.745Z,93.40
2018-05-25T20:17:41.140Z,93.10
2018-05-25T20:20:07.526Z,92.90
2018-05-25T20:22:34.818Z,93.20
2018-05-25T20:25:14.372Z,93.10
2018-05-25T20:27:40.751Z,93.10
2018-05-25T20:30:07.949Z,93.10
2018-05-25T20:32:34.360Z,93.10
2018-05-25T20:35:00.857Z,93.30
2018-05-25T20:37:27.295Z,93.30
2018-05-25T20:39:53.697Z,93.30
2018-05-25T20:42:20.162Z,93.30
2018-05-25T20:44:47.363Z,93.30
2018-05-25T20:47:13.758Z,93.30
2018-05-25T20:49:40.881Z,93.20
2018-05-25T20:52:07.310Z,93.20
2018-05-25T20:54:33.721Z,93.20
2018-05-25T20:57:00.147Z,93.10
2018-05-25T20:59:26.543Z,93.10
2018-05-25T21:01:53.740Z,93.10
2018-05-25T21:04:20.152Z,93.10
2018-05-25T21:06:46.613Z,93.10
2018-05-25T21:09:13.012Z,93.10
2018-05-25T21:11:39.446Z,93.10
2018-05-25T21:14:05.838Z,93.10
2018-05-25T21:16:32.215Z,93.10
2018-05-25T21:18:58.620Z,93.10
2018-05-25T21:21:25.767Z,92.90
2018-05-25T21:23:52.942Z,93.00
2018-05-25T21:26:19.331Z,93.30
2018-05-25T21:28:45.732Z,93.10
2018-05-25T21:31:12.160Z,93.10
2018-05-25T21:33:38.563Z,93.10
2018-05-25T21:36:05.000Z,93.10
2018-05-25T21:38:31.405Z,93.00
2018-05-25T21:40:58.546Z,93.10
2018-05-25T21:43:25.699Z,93.10
2018-05-25T21:45:52.291Z,93.10
2018-05-25T21:48:18.701Z,93.50
2018-05-25T21:50:45.154Z,93.10
2018-05-25T21:53:11.561Z,92.80
2018-05-25T21:55:37.947Z,93.00
2018-05-25T21:58:04.347Z,93.00
2018-05-25T22:00:30.776Z,92.80
2018-05-25T22:02:57.219Z,92.90
2018-05-25T22:05:23.610Z,93.00
2018-05-25T22:07:50.789Z,93.00
2018-05-25T22:10:17.216Z,93.00
2018-05-25T22:12:43.650Z,92.90
2018-05-25T22:15:10.062Z,93.00
2018-05-25T22:17:37.209Z,93.10
2018-05-25T22:20:04.360Z,92.90
2018-05-25T22:22:31.509Z,92.70
2018-05-25T22:24:58.644Z,92.90
2018-05-25T22:27:25.042Z,92.90
2018-05-25T22:29:51.443Z,92.90
2018-05-25T22:32:17.880Z,93.10
2018-05-25T22:34:44.307Z,93.00
2018-05-25T22:37:10.707Z,93.10
2018-05-25T22:39:37.102Z,93.00
2018-05-25T22:42:03.300Z,93.00
2018-05-25T22:44:41.931Z,93.10
2018-05-25T22:47:20.639Z,93.00
2018-05-25T22:49:59.203Z,93.00
2018-05-25T22:52:31.471Z,93.00
2018-05-25T22:54:57.891Z,93.00
2018-05-25T22:57:24.328Z,93.10
2018-05-25T22:59:50.770Z,93.10
2018-05-25T23:02:17.176Z,93.30
2018-05-25T23:04:43.587Z,93.20
2018-05-25T23:07:09.980Z,93.30
2018-05-25T23:09:36.396Z,93.20
2018-05-25T23:12:02.833Z,93.60
2018-05-25T23:14:29.259Z,93.60
2018-05-25T23:16:56.420Z,93.40
2018-05-25T23:19:22.832Z,93.40
2018-05-25T23:21:49.988Z,93.60
2018-05-25T23:24:16.377Z,93.60
2018-05-25T23:26:43.524Z,93.70
2018-05-25T23:29:10.712Z,93.80
2018-05-25T23:31:37.097Z,93.80
2018-05-25T23:34:03.508Z,93.90
2018-05-25T23:36:29.906Z,94.10
2018-05-25T23:38:56.321Z,93.80
2018-05-25T23:41:22.709Z,93.70
2018-05-25T23:43:49.108Z,93.60
2018-05-25T23:46:15.517Z,93.70
2018-05-25T23:48:41.936Z,93.80
2018-05-25T23:51:09.074Z,93.90
2018-05-25T23:53:36.224Z,93.70
2018-05-25T23:56:03.343Z,94.20
2018-05-25T23:58:30.499Z,93.70
